Time;durP1;ratioP1;P1;durP2;ratioP2;P2;SDS_P1;SDS_P2;PMS_P1;PMS_P2;Temp;Humidity;BMP_temperature;BMP_pressure;BME280_temperature;BME280_humidity;BME280_pressure;Samples;Min_cycle;Max_cycle;Signal;HPM_P1;HPM_P2
2022/11/27 00:01:20;;;;;;;14.73;5.45;;;;;;;4.41;100.00;102435.59;5074522;28;20578;-52
2022/11/27 00:03:48;;;;;;;15.23;5.22;;;;;;;4.36;100.00;102433.09;5074097;28;20045;-49
2022/11/27 00:06:20;;;;;;;14.93;4.97;;;;;;;4.41;100.00;102430.41;5074710;28;20098;-49
2022/11/27 00:08:49;;;;;;;16.40;5.45;;;;;;;4.35;100.00;102427.88;5074831;28;20095;-51
2022/11/27 00:11:19;;;;;;;14.85;5.57;;;;;;;4.35;100.00;102422.66;5070845;28;20055;-49
2022/11/27 00:13:49;;;;;;;14.85;5.13;;;;;;;4.35;100.00;102418.31;5069175;28;20059;-49
2022/11/27 00:16:18;;;;;;;15.00;5.53;;;;;;;4.31;100.00;102423.59;5072141;28;20056;-51
2022/11/27 00:18:46;;;;;;;17.13;5.80;;;;;;;4.32;100.00;102415.78;5073554;28;20066;-52
2022/11/27 00:21:16;;;;;;;17.40;5.20;;;;;;;4.33;100.00;102416.63;5074495;28;20056;-48
2022/11/27 00:23:46;;;;;;;14.80;5.35;;;;;;;4.25;100.00;102402.84;5074579;28;20124;-55
2022/11/27 00:26:14;;;;;;;15.27;6.22;;;;;;;4.28;100.00;102394.97;5071615;28;20114;-54
2022/11/27 00:28:43;;;;;;;17.27;5.43;;;;;;;4.25;100.00;102392.44;5069045;28;20565;-55
2022/11/27 00:31:14;;;;;;;13.98;5.40;;;;;;;4.22;100.00;102394.19;5068488;28;20496;-54
2022/11/27 00:33:42;;;;;;;17.90;6.68;;;;;;;4.20;100.00;102395.97;5074496;28;20041;-55
2022/11/27 00:36:14;;;;;;;15.90;6.18;;;;;;;4.21;100.00;102396.81;5072993;28;20040;-47
2022/11/27 00:38:43;;;;;;;14.88;5.85;;;;;;;4.17;100.00;102393.41;5074201;28;20095;-51
2022/11/27 00:41:15;;;;;;;17.58;5.75;;;;;;;4.20;100.00;102395.09;5074186;28;20087;-48
2022/11/27 00:43:43;;;;;;;17.02;6.28;;;;;;;4.11;100.00;102385.66;5073907;28;20055;-46
2022/11/27 00:46:12;;;;;;;13.95;5.78;;;;;;;4.13;100.00;102381.31;5073720;28;20537;-47
2022/11/27 00:48:41;;;;;;;21.77;7.40;;;;;;;4.11;100.00;102377.84;5073603;28;20067;-51
2022/11/27 00:51:12;;;;;;;14.27;5.95;;;;;;;4.09;100.00;102377.03;5073902;28;20060;-48
2022/11/27 00:53:41;;;;;;;13.50;5.65;;;;;;;4.10;100.00;102383.94;5074051;28;20048;-47
2022/11/27 00:56:10;;;;;;;19.35;6.53;;;;;;;4.06;100.00;102372.72;5073716;28;20052;-50
2022/11/27 00:58:40;;;;;;;17.63;6.65;;;;;;;4.04;100.00;102376.22;5073890;28;20611;-47
2022/11/27 01:01:08;;;;;;;18.92;6.95;;;;;;;4.02;100.00;102380.56;5073804;28;20057;-50
2022/11/27 01:03:36;;;;;;;14.75;6.13;;;;;;;4.01;100.00;102381.47;5073205;28;20044;-49
2022/11/27 01:06:06;;;;;;;16.48;7.03;;;;;;;3.97;100.00;102378.03;5073502;28;20043;-49
2022/11/27 01:08:35;;;;;;;15.18;6.55;;;;;;;3.98;100.00;102376.28;5073589;28;20062;-52
2022/11/27 01:11:03;;;;;;;18.30;7.47;;;;;;;4.02;100.00;102370.16;5072381;28;20053;-49
2022/11/27 01:13:33;;;;;;;18.77;8.60;;;;;;;4.02;100.00;102360.63;5073451;28;20040;-49
2022/11/27 01:16:04;;;;;;;15.68;6.75;;;;;;;4.01;100.00;102363.25;5073498;28;20487;-50
2022/11/27 01:18:33;;;;;;;16.33;7.30;;;;;;;3.98;100.00;102371.06;5073525;28;20443;-48
2022/11/27 01:21:02;;;;;;;16.33;6.82;;;;;;;3.97;100.00;102366.78;5072856;28;20460;-47
2022/11/27 01:23:30;;;;;;;17.48;7.38;;;;;;;4.04;100.00;102368.41;5072927;28;20106;-53
2022/11/27 01:26:00;;;;;;;17.50;7.13;;;;;;;3.96;100.00;102365.88;5072647;28;20041;-54
2022/11/27 01:28:29;;;;;;;14.68;6.97;;;;;;;4.02;100.00;102362.34;5073054;28;20048;-56
2022/11/27 01:30:57;;;;;;;17.98;8.00;;;;;;;4.01;100.00;102364.09;5072489;28;20048;-54
2022/11/27 01:33:27;;;;;;;15.95;7.90;;;;;;;3.94;100.00;102361.59;5072643;28;20074;-54
2022/11/27 01:35:56;;;;;;;17.85;8.88;;;;;;;3.95;100.00;102348.53;5072988;28;20102;-55
2022/11/27 01:38:25;;;;;;;19.05;9.32;;;;;;;3.97;100.00;102346.78;5072845;28;20127;-54
2022/11/27 01:40:57;;;;;;;21.73;9.98;;;;;;;3.93;100.00;102339.03;5070611;28;20052;-55
2022/11/27 01:43:43;;;;;;;23.33;11.50;;;;;;;3.89;100.00;102338.22;5067306;28;20051;-55
2022/11/27 01:46:20;;;;;;;21.13;11.68;;;;;;;3.84;100.00;102350.44;5071729;28;20098;-54
2022/11/27 01:48:51;;;;;;;24.00;10.85;;;;;;;3.87;100.00;102339.97;5068578;28;20373;-54
2022/11/27 01:51:20;;;;;;;16.77;9.10;;;;;;;3.81;100.00;102343.53;5067954;28;20565;-54
2022/11/27 01:53:49;;;;;;;21.48;9.20;;;;;;;3.84;100.00;102338.28;5070634;28;20048;-53
2022/11/27 01:56:18;;;;;;;19.58;9.07;;;;;;;3.84;100.00;102337.41;5067327;28;20076;-54
2022/11/27 01:58:47;;;;;;;22.60;9.43;;;;;;;3.82;100.00;102331.38;5068403;28;20048;-54
2022/11/27 02:01:15;;;;;;;20.80;8.85;;;;;;;3.82;100.00;102332.25;5067527;28;20063;-54
2022/11/27 02:03:44;;;;;;;18.38;9.00;;;;;;;3.81;100.00;102321.84;5072657;28;20102;-54
2022/11/27 02:06:14;;;;;;;21.63;9.43;;;;;;;3.80;100.00;102307.09;5072619;28;21011;-53
2022/11/27 02:08:42;;;;;;;15.85;8.10;;;;;;;3.85;100.00;102305.31;5072456;28;20068;-54
2022/11/27 02:11:18;;;;;;;18.55;8.13;;;;;;;3.85;100.00;102290.53;5072317;28;20119;-54
2022/11/27 02:13:53;;;;;;;15.77;7.38;;;;;;;3.79;100.00;102282.84;5071893;28;20533;-53
2022/11/27 02:16:29;;;;;;;17.27;7.90;;;;;;;3.72;100.00;102268.16;5072314;28;20068;-55
2022/11/27 02:19:07;;;;;;;17.88;7.85;;;;;;;3.70;100.00;102267.34;5072305;28;20403;-54
2022/11/27 02:21:39;;;;;;;18.58;7.55;;;;;;;3.68;100.00;102267.38;5071658;28;20045;-52
2022/11/27 02:24:27;;;;;;;;;;;;;;;3.71;100.00;102261.25;5068397;28;20044;-54
2022/11/27 02:27:27;;;;;;;19.67;6.60;;;;;;;3.78;100.00;102247.28;5067791;28;19920;-55
2022/11/27 02:30:02;;;;;;;15.70;7.32;;;;;;;3.65;100.00;102250.94;5066029;28;20052;-53
2022/11/27 02:32:39;;;;;;;19.48;7.88;;;;;;;3.72;100.00;102258.63;5072370;28;20044;-54
2022/11/27 02:35:14;;;;;;;16.67;6.97;;;;;;;3.72;100.00;102244.75;5071979;28;20056;-55
2022/11/27 02:37:47;;;;;;;18.00;7.18;;;;;;;3.72;100.00;102244.75;5071727;28;20450;-55
2022/11/27 02:40:20;;;;;;;;;;;;;;;3.71;100.00;102233.50;5072712;28;20052;-54
2022/11/27 02:42:54;;;;;;;16.13;6.40;;;;;;;3.73;100.00;102230.84;5072211;28;19928;-55
2022/11/27 02:45:29;;;;;;;13.50;6.38;;;;;;;3.69;100.00;102230.03;5072315;28;20048;-53
2022/11/27 02:47:59;;;;;;;17.17;7.40;;;;;;;3.65;100.00;102233.56;5071591;28;20045;-54
2022/11/27 02:50:29;;;;;;;21.52;6.80;;;;;;;3.75;100.00;102229.09;5068374;28;20127;-55
2022/11/27 02:53:03;;;;;;;14.27;5.95;;;;;;;3.76;100.00;102225.59;5067157;28;20491;-54
2022/11/27 02:55:34;;;;;;;15.68;6.63;;;;;;;3.73;100.00;102223.06;5068143;28;20064;-53
2022/11/27 02:58:07;;;;;;;14.30;6.68;;;;;;;3.69;100.00;102237.00;5069639;28;20056;-50
2022/11/27 03:00:37;;;;;;;;;;;;;;;3.70;100.00;102236.13;5066324;28;20048;-52
2022/11/27 03:03:08;;;;;;;15.63;5.60;;;;;;;3.76;100.00;102235.16;5071795;28;19924;-52
2022/11/27 03:05:42;;;;;;;15.10;5.60;;;;;;;3.83;100.00;102242.88;5067385;28;20036;-47
2022/11/27 03:08:17;;;;;;;11.90;5.53;;;;;;;3.82;100.00;102243.75;5068912;28;20082;-50
2022/11/27 03:10:51;;;;;;;14.93;5.63;;;;;;;3.81;100.00;102243.78;5071987;28;20121;-48
2022/11/27 03:13:19;;;;;;;11.40;5.13;;;;;;;3.77;100.00;102242.94;5072245;28;20545;-48
2022/11/27 03:16:02;;;;;;;15.40;5.72;;;;;;;3.79;100.00;102233.38;5066251;28;20049;-49
2022/11/27 03:18:38;;;;;;;17.88;5.55;;;;;;;3.79;100.00;102235.09;5067779;28;20048;-50
2022/11/27 03:21:21;;;;;;;14.43;5.05;;;;;;;3.86;100.00;102229.81;5071798;28;20065;-53
2022/11/27 03:23:49;;;;;;;13.98;5.57;;;;;;;3.91;100.00;102232.31;5070729;28;20090;-52
2022/11/27 03:26:18;;;;;;;14.30;5.00;;;;;;;3.87;100.00;102223.72;5073464;28;20048;-49
2022/11/27 03:28:47;;;;;;;12.35;5.10;;;;;;;3.96;100.00;102214.91;5075256;28;20059;-49
2022/11/27 03:31:17;;;;;;;12.40;4.95;;;;;;;3.94;100.00;102218.41;5075749;28;20056;-47
2022/11/27 03:33:46;;;;;;;15.02;6.07;;;;;;;4.00;100.00;102215.72;5075184;28;20055;-52
2022/11/27 03:36:17;;;;;;;20.50;6.05;;;;;;;4.04;100.00;102215.63;5075386;28;20033;-54
2022/11/27 03:38:48;;;;;;;13.75;5.07;;;;;;;4.00;100.00;102211.38;5075013;28;20408;-48
2022/11/27 03:41:24;;;;;;;15.15;5.53;;;;;;;3.98;100.00;102207.94;5074851;28;20048;-47
2022/11/27 03:44:06;;;;;;;15.63;6.13;;;;;;;3.95;100.00;102209.72;5074370;28;20055;-51
2022/11/27 03:46:51;;;;;;;15.02;6.45;;;;;;;4.00;100.00;102205.31;5074975;28;20041;-48
2022/11/27 03:49:27;;;;;;;17.17;5.70;;;;;;;4.04;100.00;102209.59;5075067;28;20067;-50
2022/11/27 03:52:06;;;;;;;15.52;6.60;;;;;;;4.07;100.00;102207.75;5075172;28;20495;-51
2022/11/27 03:54:43;;;;;;;14.60;6.30;;;;;;;4.09;100.00;102202.56;5074779;28;20045;-49
2022/11/27 03:57:18;;;;;;;16.27;7.20;;;;;;;4.09;100.00;102199.97;5074323;28;20052;-48
2022/11/27 03:59:49;;;;;;;13.88;6.20;;;;;;;4.13;100.00;102200.75;5074593;28;20082;-47
2022/11/27 04:02:30;;;;;;;15.95;6.60;;;;;;;4.18;100.00;102191.97;5074926;28;20135;-52
2022/11/27 04:04:58;;;;;;;16.55;5.90;;;;;;;4.12;100.00;102184.28;5073617;28;20547;-54
2022/11/27 04:07:26;;;;;;;18.33;6.05;;;;;;;4.17;100.00;102192.88;5074840;28;20143;-54
2022/11/27 04:09:54;;;;;;;14.75;5.97;;;;;;;4.15;100.00;102186.81;5074803;28;20044;-54
2022/11/27 04:12:22;;;;;;;17.73;5.43;;;;;;;4.16;100.00;102193.75;5074773;28;20140;-55
2022/11/27 04:14:51;;;;;;;13.38;5.93;;;;;;;4.17;100.00;102185.06;5074164;28;20166;-54
2022/11/27 04:17:20;;;;;;;16.02;5.95;;;;;;;4.17;100.00;102177.25;5071261;28;20037;-55
2022/11/27 04:19:49;;;;;;;13.70;5.97;;;;;;;4.22;100.00;102184.97;5070458;28;20859;-54
2022/11/27 04:22:17;;;;;;;15.48;6.35;;;;;;;4.27;100.00;102182.28;5069933;28;20060;-54
2022/11/27 04:24:45;;;;;;;19.52;5.78;;;;;;;4.18;100.00;102175.50;5074308;28;20049;-54
2022/11/27 04:27:13;;;;;;;14.05;5.30;;;;;;;4.15;100.00;102172.97;5074492;28;20066;-54
2022/11/27 04:29:41;;;;;;;12.32;4.50;;;;;;;4.19;100.00;102175.47;5074310;28;20507;-54
2022/11/27 04:32:10;;;;;;;12.35;4.32;;;;;;;4.18;100.00;102186.75;5070755;28;20050;-55
2022/11/27 04:34:42;;;;;;;11.80;4.80;;;;;;;4.18;100.00;102184.16;5069391;28;20052;-54
2022/11/27 04:37:10;;;;;;;10.20;4.85;;;;;;;4.20;100.00;102187.59;5073385;28;20056;-55
2022/11/27 04:39:39;;;;;;;11.43;4.45;;;;;;;4.26;100.00;102180.59;5073985;28;20049;-54
2022/11/27 04:42:07;;;;;;;14.15;4.40;;;;;;;4.29;100.00;102178.75;5073376;28;20056;-54
2022/11/27 04:44:35;;;;;;;13.60;4.93;;;;;;;4.28;100.00;102182.28;5074021;28;20564;-55
2022/11/27 04:47:03;;;;;;;9.90;4.50;;;;;;;4.31;100.00;102186.56;5073896;28;20135;-54
2022/11/27 04:49:32;;;;;;;12.90;4.70;;;;;;;4.28;100.00;102186.59;5073906;28;20573;-55
2022/11/27 04:52:01;;;;;;;11.98;4.38;;;;;;;4.34;100.00;102189.13;5073271;28;20053;-54
2022/11/27 04:54:29;;;;;;;14.20;4.90;;;;;;;4.33;100.00;102190.00;5068819;28;20058;-49
2022/11/27 04:56:57;;;;;;;13.23;4.03;;;;;;;4.36;100.00;102195.16;5071936;28;20037;-49
2022/11/27 04:59:26;;;;;;;16.92;5.00;;;;;;;4.37;100.00;102179.50;5074036;28;20430;-54
2022/11/27 05:01:54;;;;;;;12.50;4.35;;;;;;;4.40;100.00;102181.19;5072185;28;20090;-55
2022/11/27 05:04:24;;;;;;;13.52;4.53;;;;;;;4.47;100.00;102172.38;5068323;28;20044;-53
2022/11/27 05:06:53;;;;;;;17.23;5.55;;;;;;;4.44;100.00;102166.38;5071177;28;20048;-53
2022/11/27 05:09:22;;;;;;;12.88;4.57;;;;;;;4.42;100.00;102169.00;5072318;28;20052;-53
2022/11/27 05:11:50;;;;;;;13.98;4.75;;;;;;;4.36;100.00;102164.78;5073521;28;20056;-55
2022/11/27 05:14:20;;;;;;;12.15;4.68;;;;;;;4.38;100.00;102165.59;5072992;28;20169;-55
2022/11/27 05:16:50;;;;;;;9.90;4.45;;;;;;;4.43;100.00;102162.03;5072534;28;20040;-55
2022/11/27 05:19:20;;;;;;;13.52;4.72;;;;;;;4.42;100.00;102165.53;5067279;28;20056;-55
2022/11/27 05:21:50;;;;;;;13.23;4.75;;;;;;;4.43;100.00;102157.69;5029318;28;20136;-55
2022/11/27 05:24:21;;;;;;;12.13;4.80;;;;;;;4.46;100.00;102151.56;5028450;28;20045;-55
2022/11/27 05:26:50;;;;;;;15.43;4.72;;;;;;;4.42;100.00;102142.06;5032141;28;20420;-54
2022/11/27 05:29:19;;;;;;;13.38;4.70;;;;;;;4.45;100.00;102149.84;5031909;28;20087;-55
2022/11/27 05:31:48;;;;;;;9.82;4.45;;;;;;;4.43;100.00;102134.25;5027786;28;20049;-55
2022/11/27 05:34:16;;;;;;;13.05;4.78;;;;;;;4.49;100.00;102134.13;5028282;28;20088;-55
2022/11/27 05:36:44;;;;;;;12.70;4.50;;;;;;;4.46;100.00;102125.50;5030338;28;20385;-54
2022/11/27 05:39:13;;;;;;;12.75;4.30;;;;;;;4.47;100.00;102119.41;5033128;28;20044;-55
2022/11/27 05:41:43;;;;;;;14.70;5.55;;;;;;;4.50;100.00;102122.81;5033221;28;20041;-54
2022/11/27 05:44:14;;;;;;;12.55;4.50;;;;;;;4.52;100.00;102121.03;5032964;28;20045;-54
2022/11/27 05:46:43;;;;;;;12.20;4.87;;;;;;;4.46;100.00;102122.91;5030759;28;20045;-55
2022/11/27 05:49:15;;;;;;;12.90;4.60;;;;;;;4.44;100.00;102119.47;5028416;28;20505;-54
2022/11/27 05:51:44;;;;;;;13.65;4.72;;;;;;;4.45;100.00;102114.22;5032312;28;20083;-54
2022/11/27 05:54:18;;;;;;;12.65;4.53;;;;;;;4.47;100.00;102114.19;5033033;28;20133;-56
2022/11/27 05:56:46;;;;;;;14.63;4.70;;;;;;;4.46;100.00;102121.16;5032949;28;20044;-53
2022/11/27 05:59:16;;;;;;;12.60;4.55;;;;;;;4.52;100.00;102114.97;5032739;28;20061;-55
2022/11/27 06:01:44;;;;;;;12.60;4.68;;;;;;;4.56;100.00;102117.47;5032808;28;20103;-55
2022/11/27 06:04:12;;;;;;;10.07;4.63;;;;;;;4.54;100.00;102113.19;5032571;28;20428;-54
2022/11/27 06:06:40;;;;;;;13.15;5.25;;;;;;;4.53;100.00;102114.09;5032245;28;20045;-55
2022/11/27 06:09:09;;;;;;;14.32;4.90;;;;;;;4.51;100.00;102121.94;5027942;28;20049;-54
2022/11/27 06:11:41;;;;;;;14.43;4.75;;;;;;;4.50;100.00;102115.00;5028010;28;20049;-54
2022/11/27 06:14:09;;;;;;;14.05;5.00;;;;;;;4.61;100.00;102119.13;5028221;28;20052;-55
2022/11/27 06:16:39;;;;;;;10.35;4.75;;;;;;;4.57;100.00;102110.53;5026990;28;20058;-55
2022/11/27 06:19:07;;;;;;;14.85;4.70;;;;;;;4.59;100.00;102107.91;5028442;28;20453;-53
2022/11/27 06:21:36;;;;;;;9.98;4.50;;;;;;;4.62;100.00;102100.88;5066354;28;20074;-54
2022/11/27 06:24:04;;;;;;;11.55;4.60;;;;;;;4.56;100.00;102098.38;5072294;28;20048;-54
2022/11/27 06:26:33;;;;;;;11.38;4.50;;;;;;;4.60;100.00;102097.44;5069452;28;20055;-55
2022/11/27 06:29:02;;;;;;;11.27;4.10;;;;;;;4.64;100.00;102093.88;5067874;28;20047;-54
2022/11/27 06:31:33;;;;;;;11.77;4.43;;;;;;;4.61;100.00;102087.88;5071037;28;20067;-54
2022/11/27 06:34:04;;;;;;;13.98;5.28;;;;;;;4.65;100.00;102089.50;5072430;28;20053;-55
2022/11/27 06:36:33;;;;;;;11.60;4.15;;;;;;;4.63;100.00;102083.50;5072138;28;20442;-56
2022/11/27 06:39:02;;;;;;;13.02;4.72;;;;;;;4.68;100.00;102081.66;5071874;28;20044;-55
2022/11/27 06:41:32;;;;;;;13.02;5.18;;;;;;;4.68;100.00;102079.06;5067405;28;20044;-55
2022/11/27 06:44:01;;;;;;;11.98;4.57;;;;;;;4.62;100.00;102079.16;5067468;28;20049;-55
2022/11/27 06:46:29;;;;;;;14.43;5.50;;;;;;;4.65;100.00;102082.56;5070572;28;20523;-54
2022/11/27 06:48:58;;;;;;;13.23;4.93;;;;;;;4.66;100.00;102075.59;5068133;28;20404;-48
2022/11/27 06:51:30;;;;;;;14.05;5.35;;;;;;;4.66;100.00;102073.88;5069679;28;20503;-50
2022/11/27 06:53:59;;;;;;;14.45;5.18;;;;;;;4.63;100.00;102070.47;5069201;28;20048;-50
2022/11/27 06:56:30;;;;;;;10.93;5.18;;;;;;;4.67;100.00;102074.72;5067100;28;20056;-49
2022/11/27 06:59:00;;;;;;;17.00;6.32;;;;;;;4.74;100.00;102065.88;5071413;28;20049;-55
2022/11/27 07:01:30;;;;;;;15.70;5.07;;;;;;;4.68;100.00;102072.06;5068319;28;20052;-55
2022/11/27 07:03:59;;;;;;;11.70;5.32;;;;;;;4.71;100.00;102063.34;5071767;28;20486;-55
2022/11/27 07:06:29;;;;;;;12.75;5.63;;;;;;;4.72;100.00;102070.28;5071200;28;20467;-55
2022/11/27 07:08:57;;;;;;;13.52;5.88;;;;;;;4.71;100.00;102068.56;5071354;28;20047;-55
2022/11/27 07:11:27;;;;;;;14.57;5.80;;;;;;;4.71;100.00;102066.78;5070865;28;20045;-54
2022/11/27 07:13:57;;;;;;;13.35;5.60;;;;;;;4.77;100.00;102068.41;5072088;28;20074;-55
2022/11/27 07:16:30;;;;;;;14.82;5.30;;;;;;;4.74;100.00;102060.66;5072898;28;20044;-54
2022/11/27 07:19:01;;;;;;;13.68;5.88;;;;;;;4.70;100.00;102059.88;5071745;28;20076;-56
2022/11/27 07:21:31;;;;;;;13.25;5.80;;;;;;;4.70;100.00;102051.19;5074572;28;20051;-55
2022/11/27 07:24:00;;;;;;;15.88;6.18;;;;;;;4.75;100.00;102054.56;5075817;28;20102;-56
2022/11/27 07:26:29;;;;;;;15.55;6.05;;;;;;;4.81;100.00;102048.34;5075721;28;20582;-55
2022/11/27 07:28:58;;;;;;;14.13;5.97;;;;;;;4.83;100.00;102055.25;5073071;28;20455;-54
2022/11/27 07:31:29;;;;;;;15.20;6.07;;;;;;;4.87;100.00;102037.81;5068174;28;20064;-53
2022/11/27 07:33:58;;;;;;;16.25;5.90;;;;;;;4.81;100.00;102033.56;5075315;28;20040;-54
2022/11/27 07:36:28;;;;;;;12.48;5.53;;;;;;;4.83;100.00;102036.16;5070408;28;20045;-55
2022/11/27 07:38:58;;;;;;;15.20;6.13;;;;;;;4.82;100.00;102029.22;5071635;28;20039;-55
2022/11/27 07:41:26;;;;;;;14.27;5.90;;;;;;;4.81;100.00;102037.94;5070609;28;20051;-55
2022/11/27 07:44:01;;;;;;;15.68;5.97;;;;;;;4.83;100.00;102041.38;5073027;28;20493;-54
2022/11/27 07:46:30;;;;;;;20.40;7.85;;;;;;;4.88;100.00;102035.16;5075105;28;20045;-54
2022/11/27 07:48:59;;;;;;;13.57;7.20;;;;;;;4.86;100.00;102041.31;5070843;28;20045;-56
2022/11/27 07:51:28;;;;;;;18.27;7.30;;;;;;;4.86;100.00;102034.31;5070352;28;20094;-54
2022/11/27 07:53:59;;;;;;;17.65;6.90;;;;;;;4.88;100.00;102027.34;5070774;28;20071;-56
2022/11/27 07:56:27;;;;;;;18.27;7.72;;;;;;;4.79;100.00;102024.94;5070073;28;20106;-55
2022/11/27 07:58:56;;;;;;;15.88;6.57;;;;;;;4.81;100.00;102027.50;5069556;28;20051;-55
2022/11/27 08:01:24;;;;;;;18.23;7.47;;;;;;;4.83;100.00;102026.59;5068977;28;20044;-55
2022/11/27 08:03:53;;;;;;;15.25;7.32;;;;;;;4.96;100.00;102006.28;5071981;28;20049;-54
2022/11/27 08:06:23;;;;;;;15.30;7.15;;;;;;;4.95;100.00;102009.81;5072013;28;20052;-55
2022/11/27 08:08:52;;;;;;;17.17;7.32;;;;;;;4.86;100.00;101995.22;5070533;28;20139;-54
2022/11/27 08:11:24;;;;;;;15.00;7.68;;;;;;;4.86;100.00;101994.38;5070264;28;20102;-55
2022/11/27 08:13:56;;;;;;;16.35;7.00;;;;;;;4.89;100.00;101995.19;5073852;28;20045;-53
2022/11/27 08:16:24;;;;;;;20.83;8.63;;;;;;;4.94;100.00;101995.06;5074839;28;20048;-55
2022/11/27 08:18:52;;;;;;;17.83;8.50;;;;;;;4.85;100.00;101988.31;5072515;28;20044;-53
2022/11/27 08:21:21;;;;;;;18.90;8.35;;;;;;;4.89;100.00;101986.47;5069642;28;20056;-53
2022/11/27 08:23:49;;;;;;;20.17;8.43;;;;;;;4.91;100.00;101990.78;5070197;28;20134;-55
2022/11/27 08:26:18;;;;;;;20.10;9.65;;;;;;;4.90;100.00;101989.03;5069339;28;20101;-54
2022/11/27 08:28:47;;;;;;;17.25;8.73;;;;;;;4.87;100.00;101983.91;5069977;28;20127;-53
2022/11/27 08:31:15;;;;;;;16.17;8.25;;;;;;;4.92;100.00;101994.22;5073836;28;20439;-53
2022/11/27 08:33:44;;;;;;;19.17;9.82;;;;;;;4.94;100.00;101989.00;5074474;28;20049;-52
2022/11/27 08:36:12;;;;;;;17.90;7.95;;;;;;;4.82;100.00;101987.53;5074313;28;20045;-54
2022/11/27 08:38:45;;;;;;;18.10;7.85;;;;;;;4.87;100.00;101983.91;5068893;28;20533;-52
2022/11/27 08:41:13;;;;;;;16.38;8.43;;;;;;;4.86;100.00;101987.41;5069922;28;20047;-52
2022/11/27 08:43:41;;;;;;;20.17;8.65;;;;;;;4.88;100.00;101985.63;5074074;28;20143;-52
2022/11/27 08:46:11;;;;;;;17.58;7.93;;;;;;;4.92;100.00;101983.78;5071975;28;20052;-53
2022/11/27 08:48:40;;;;;;;17.52;7.72;;;;;;;4.93;100.00;101984.66;5069377;28;20056;-55
2022/11/27 08:51:10;;;;;;;19.75;8.70;;;;;;;4.94;100.00;101984.63;5072264;28;20046;-54
2022/11/27 08:53:44;;;;;;;18.20;8.27;;;;;;;4.98;100.00;101981.06;5074058;28;20501;-54
2022/11/27 08:56:16;;;;;;;16.77;8.32;;;;;;;4.96;100.00;101972.41;5073795;28;20052;-50
2022/11/27 08:58:45;;;;;;;22.40;8.70;;;;;;;4.90;100.00;101973.41;5071497;28;20700;-50
2022/11/27 09:01:17;;;;;;;16.05;8.15;;;;;;;5.01;100.00;101972.31;5067901;28;20542;-51
2022/11/27 09:03:46;;;;;;;17.55;7.78;;;;;;;5.01;100.00;101961.88;5073240;28;20525;-50
2022/11/27 09:06:18;;;;;;;17.33;8.60;;;;;;;5.00;100.00;101966.22;5073860;28;20037;-47
2022/11/27 09:08:50;;;;;;;19.08;7.80;;;;;;;5.00;100.00;101954.94;5073009;28;20052;-51
2022/11/27 09:11:20;;;;;;;25.25;9.75;;;;;;;5.00;100.00;101958.41;5073213;28;20044;-47
2022/11/27 09:13:48;;;;;;;18.10;8.57;;;;;;;4.93;100.00;101953.38;5073488;28;20530;-50
2022/11/27 09:16:20;;;;;;;20.30;9.15;;;;;;;5.00;100.00;101963.59;5073465;28;20117;-50
2022/11/27 09:18:52;;;;;;;21.10;8.65;;;;;;;5.00;100.00;101954.94;5073431;28;20143;-49
2022/11/27 09:21:23;;;;;;;23.00;9.88;;;;;;;4.99;100.00;101953.22;5072089;28;20060;-50
2022/11/27 09:23:53;;;;;;;20.33;9.73;;;;;;;5.02;100.00;101947.97;5073274;28;20068;-49
2022/11/27 09:26:24;;;;;;;19.52;9.85;;;;;;;5.04;100.00;101956.59;5073342;28;20052;-48
2022/11/27 09:28:53;;;;;;;18.80;9.73;;;;;;;4.95;100.00;101955.06;5073076;28;20047;-50
2022/11/27 09:31:23;;;;;;;22.58;9.63;;;;;;;4.97;100.00;101960.25;5072436;28;20147;-50
2022/11/27 09:33:51;;;;;;;21.67;10.70;;;;;;;4.98;100.00;101952.38;5073436;28;20556;-52
2022/11/27 09:36:22;;;;;;;22.27;10.10;;;;;;;5.05;100.00;101959.16;5073271;28;20090;-49
2022/11/27 09:38:50;;;;;;;19.60;9.88;;;;;;;5.07;100.00;101952.16;5073119;28;20118;-52
2022/11/27 09:41:43;;;;;;;21.20;11.20;;;;;;;5.10;100.00;101956.44;5073178;28;20121;-49
2022/11/27 09:44:37;;;;;;;20.02;9.65;;;;;;;5.15;100.00;101948.50;5073033;28;20071;-49
2022/11/27 09:47:15;;;;;;;21.27;10.98;;;;;;;5.14;100.00;101954.59;5072588;28;20045;-48
2022/11/27 09:49:48;;;;;;;17.20;8.98;;;;;;;5.16;100.00;101958.88;5072079;28;20068;-48
2022/11/27 09:52:24;;;;;;;20.70;10.02;;;;;;;5.20;100.00;101959.69;5072648;28;20048;-48
2022/11/27 09:54:58;;;;;;;20.17;9.30;;;;;;;5.18;100.00;101949.28;5072469;28;20079;-49
2022/11/27 09:57:32;;;;;;;21.85;10.65;;;;;;;5.21;100.00;101949.19;5072751;28;20475;-47
2022/11/27 10:00:04;;;;;;;21.10;9.75;;;;;;;5.28;100.00;101954.28;5071857;28;20056;-47
2022/11/27 10:02:35;;;;;;;20.42;9.65;;;;;;;5.23;100.00;101947.41;5073003;28;20049;-48
2022/11/27 10:05:08;;;;;;;17.25;9.73;;;;;;;5.31;100.00;101943.75;5072885;28;20068;-47
2022/11/27 10:08:01;;;;;;;18.52;9.25;;;;;;;5.36;100.00;101941.91;5072169;28;20372;-49
2022/11/27 10:10:40;;;;;;;20.33;8.65;;;;;;;5.42;100.00;101932.13;5072667;28;20056;-54
2022/11/27 10:13:23;;;;;;;18.70;8.57;;;;;;;5.40;100.00;101933.09;5072635;28;20044;-55
2022/11/27 10:15:58;;;;;;;17.58;8.68;;;;;;;5.43;100.00;101930.41;5068336;28;20056;-53
2022/11/27 10:18:35;;;;;;;21.10;8.85;;;;;;;5.39;100.00;101921.78;5066808;28;20100;-55
2022/11/27 10:21:12;;;;;;;16.00;8.52;;;;;;;5.43;100.00;101922.56;5072463;28;20055;-55
2022/11/27 10:23:47;;;;;;;17.20;7.85;;;;;;;5.45;100.00;101925.97;5072421;28;20517;-53
2022/11/27 10:26:19;;;;;;;17.02;7.45;;;;;;;5.46;100.00;101925.09;5070926;28;20093;-54
2022/11/27 10:28:58;;;;;;;18.85;7.80;;;;;;;5.51;100.00;101920.63;5072338;28;20040;-54
2022/11/27 10:31:35;;;;;;;16.83;7.75;;;;;;;5.52;100.00;101908.41;5072089;28;20441;-54
2022/11/27 10:34:13;;;;;;;16.15;7.90;;;;;;;5.58;100.00;101900.44;5072346;28;20064;-54
2022/11/27 10:36:46;;;;;;;17.50;7.88;;;;;;;5.50;100.00;101895.41;5071794;28;20113;-54
2022/11/27 10:39:20;;;;;;;15.98;8.57;;;;;;;5.54;100.00;101897.03;5072259;28;20047;-54
2022/11/27 10:41:54;;;;;;;12.35;7.10;;;;;;;5.55;100.00;101901.38;5071558;28;20571;-55
2022/11/27 10:44:30;;;;;;;20.80;8.55;;;;;;;5.61;100.00;101892.50;5071657;28;20045;-55
2022/11/27 10:47:02;;;;;;;16.75;8.45;;;;;;;5.65;100.00;101888.06;5071929;28;20048;-56
2022/11/27 10:49:34;;;;;;;14.02;7.53;;;;;;;5.67;100.00;101883.66;5067915;28;20616;-55
2022/11/27 10:52:02;;;;;;;13.63;7.32;;;;;;;5.67;100.00;101873.22;5067852;28;20063;-54
2022/11/27 10:54:36;;;;;;;19.55;8.52;;;;;;;5.63;100.00;101866.34;5070589;28;20045;-55
2022/11/27 10:57:28;;;;;;;16.70;8.02;;;;;;;5.74;100.00;101854.72;5068043;28;20048;-54
2022/11/27 11:00:05;;;;;;;13.88;7.40;;;;;;;5.72;100.00;101853.06;5070798;28;20048;-53
2022/11/27 11:02:36;;;;;;;15.05;7.28;;;;;;;5.69;100.00;101850.53;5068114;28;20071;-55
2022/11/27 11:05:16;;;;;;;15.32;7.75;;;;;;;5.71;100.00;101849.59;5067314;28;20075;-55
2022/11/27 11:08:06;;;;;;;14.55;7.50;;;;;;;5.74;100.00;101844.28;5068045;28;20099;-55
2022/11/27 11:10:37;;;;;;;16.13;7.13;;;;;;;5.80;100.00;101848.47;5071020;28;20041;-55
2022/11/27 11:13:21;;;;;;;16.27;7.38;;;;;;;5.83;100.00;101840.53;5072133;28;20048;-55
2022/11/27 11:15:56;;;;;;;14.13;6.82;;;;;;;5.79;100.00;101844.13;5071664;28;20123;-55
2022/11/27 11:18:26;;;;;;;14.65;7.10;;;;;;;5.82;100.00;101838.84;5067677;28;20075;-55
2022/11/27 11:20:58;;;;;;;15.00;7.80;;;;;;;5.91;100.00;101830.72;5067578;28;20530;-54
2022/11/27 11:23:30;;;;;;;14.73;7.43;;;;;;;5.91;100.00;101827.25;5071436;28;20063;-55
2022/11/27 11:26:03;;;;;;;13.15;6.88;;;;;;;5.93;100.00;101822.84;5071831;28;20060;-55
2022/11/27 11:28:34;;;;;;;14.15;7.45;;;;;;;6.02;100.00;101816.53;5069357;28;20078;-55
2022/11/27 11:31:10;;;;;;;13.80;7.88;;;;;;;5.99;100.00;101811.41;5066084;28;20123;-55
2022/11/27 11:33:48;;;;;;;16.75;7.57;;;;;;;5.95;100.00;101807.16;5067271;28;20434;-56
2022/11/27 11:36:18;;;;;;;16.98;7.90;;;;;;;5.94;100.00;101803.66;5066943;28;20508;-55